sensor_id;sensor_type;location;lat;lon;timestamp;temperature;humidity
9448;DHT22;4762;48.128;11.376;2023-04-03T00:01:56;1.40;99.90
9448;DHT22;4762;48.128;11.376;2023-04-03T00:03:58;1.40;99.90
9448;DHT22;4762;48.128;11.376;2023-04-03T00:06:00;1.50;99.90
9448;DHT22;4762;48.128;11.376;2023-04-03T00:08:03;1.40;99.90
9448;DHT22;4762;48.128;11.376;2023-04-03T00:10:05;1.40;99.90
9448;DHT22;4762;48.128;11.376;2023-04-03T00:12:08;1.40;99.90
9448;DHT22;4762;48.128;11.376;2023-04-03T00:14:10;1.40;99.90
9448;DHT22;4762;48.128;11.376;2023-04-03T00:16:13;1.50;99.90
9448;DHT22;4762;48.128;11.376;2023-04-03T00:18:16;1.50;99.90
9448;DHT22;4762;48.128;11.376;2023-04-03T00:20:18;1.40;99.90
9448;DHT22;4762;48.128;11.376;2023-04-03T00:22:20;1.40;99.90
9448;DHT22;4762;48.128;11.376;2023-04-03T00:24:23;1.40;99.90
9448;DHT22;4762;48.128;11.376;2023-04-03T00:26:25;1.50;99.90
9448;DHT22;4762;48.128;11.376;2023-04-03T00:28:27;1.50;99.90
9448;DHT22;4762;48.128;11.376;2023-04-03T00:30:30;1.40;99.90
9448;DHT22;4762;48.128;11.376;2023-04-03T00:32:32;1.40;99.90
9448;DHT22;4762;48.128;11.376;2023-04-03T00:34:34;1.30;99.90
9448;DHT22;4762;48.128;11.376;2023-04-03T00:36:37;1.40;99.90
9448;DHT22;4762;48.128;11.376;2023-04-03T00:38:39;1.40;99.90
9448;DHT22;4762;48.128;11.376;2023-04-03T00:40:42;1.50;99.90
9448;DHT22;4762;48.128;11.376;2023-04-03T00:42:44;1.30;99.90
9448;DHT22;4762;48.128;11.376;2023-04-03T00:45:34;1.40;99.90
9448;DHT22;4762;48.128;11.376;2023-04-03T00:47:18;1.40;99.90
9448;DHT22;4762;48.128;11.376;2023-04-03T00:49:20;1.50;99.90
9448;DHT22;4762;48.128;11.376;2023-04-03T00:51:23;1.50;99.90
9448;DHT22;4762;48.128;11.376;2023-04-03T00:53:27;1.50;99.90
9448;DHT22;4762;48.128;11.376;2023-04-03T00:55:27;1.50;99.90
9448;DHT22;4762;48.128;11.376;2023-04-03T00:57:30;1.50;99.90
9448;DHT22;4762;48.128;11.376;2023-04-03T00:59:33;1.50;99.90
9448;DHT22;4762;48.128;11.376;2023-04-03T01:01:34;1.50;99.90
9448;DHT22;4762;48.128;11.376;2023-04-03T01:03:37;1.40;99.90
9448;DHT22;4762;48.128;11.376;2023-04-03T01:05:40;1.40;99.90
9448;DHT22;4762;48.128;11.376;2023-04-03T01:07:42;1.40;99.90
9448;DHT22;4762;48.128;11.376;2023-04-03T01:09:45;1.40;99.90
9448;DHT22;4762;48.128;11.376;2023-04-03T01:11:47;1.40;99.90
9448;DHT22;4762;48.128;11.376;2023-04-03T01:13:49;1.40;99.90
9448;DHT22;4762;48.128;11.376;2023-04-03T01:15:51;1.40;99.90
9448;DHT22;4762;48.128;11.376;2023-04-03T01:17:56;1.40;99.90
9448;DHT22;4762;48.128;11.376;2023-04-03T01:22:18;1.20;99.90
9448;DHT22;4762;48.128;11.376;2023-04-03T01:24:27;1.20;99.90
9448;DHT22;4762;48.128;11.376;2023-04-03T01:26:28;1.30;99.90
9448;DHT22;4762;48.128;11.376;2023-04-03T01:28:32;1.30;99.90
9448;DHT22;4762;48.128;11.376;2023-04-03T01:30:35;1.30;99.90
9448;DHT22;4762;48.128;11.376;2023-04-03T01:32:36;1.20;99.90
9448;DHT22;4762;48.128;11.376;2023-04-03T01:34:39;1.30;99.90
9448;DHT22;4762;48.128;11.376;2023-04-03T01:36:41;1.30;99.90
9448;DHT22;4762;48.128;11.376;2023-04-03T01:38:44;1.30;99.90
9448;DHT22;4762;48.128;11.376;2023-04-03T01:40:46;1.30;99.90
9448;DHT22;4762;48.128;11.376;2023-04-03T01:42:48;1.30;99.90
9448;DHT22;4762;48.128;11.376;2023-04-03T01:44:50;1.30;99.90
9448;DHT22;4762;48.128;11.376;2023-04-03T01:46:53;1.30;99.90
9448;DHT22;4762;48.128;11.376;2023-04-03T01:48:56;1.40;99.90
9448;DHT22;4762;48.128;11.376;2023-04-03T01:50:58;1.30;99.90
9448;DHT22;4762;48.128;11.376;2023-04-03T01:53:00;1.30;99.90
9448;DHT22;4762;48.128;11.376;2023-04-03T01:55:03;1.30;99.90
9448;DHT22;4762;48.128;11.376;2023-04-03T01:57:05;1.30;99.90
9448;DHT22;4762;48.128;11.376;2023-04-03T01:59:07;1.30;99.90
9448;DHT22;4762;48.128;11.376;2023-04-03T02:01:09;1.30;99.90
9448;DHT22;4762;48.128;11.376;2023-04-03T02:03:12;1.30;99.90
9448;DHT22;4762;48.128;11.376;2023-04-03T02:05:15;1.30;99.90
9448;DHT22;4762;48.128;11.376;2023-04-03T02:07:17;1.40;99.90
9448;DHT22;4762;48.128;11.376;2023-04-03T02:09:19;1.40;99.90
9448;DHT22;4762;48.128;11.376;2023-04-03T02:11:21;1.40;99.90
9448;DHT22;4762;48.128;11.376;2023-04-03T02:13:24;1.30;99.90
9448;DHT22;4762;48.128;11.376;2023-04-03T02:15:26;1.30;99.90
9448;DHT22;4762;48.128;11.376;2023-04-03T02:17:28;1.30;99.90
9448;DHT22;4762;48.128;11.376;2023-04-03T02:19:31;1.30;99.90
9448;DHT22;4762;48.128;11.376;2023-04-03T02:21:33;1.20;99.90
9448;DHT22;4762;48.128;11.376;2023-04-03T02:23:35;1.10;99.90
9448;DHT22;4762;48.128;11.376;2023-04-03T02:25:38;1.10;99.90
9448;DHT22;4762;48.128;11.376;2023-04-03T02:27:40;1.10;99.90
9448;DHT22;4762;48.128;11.376;2023-04-03T02:29:43;1.10;99.90
9448;DHT22;4762;48.128;11.376;2023-04-03T02:31:45;1.10;99.90
9448;DHT22;4762;48.128;11.376;2023-04-03T02:33:47;1.20;99.90
9448;DHT22;4762;48.128;11.376;2023-04-03T02:35:54;1.20;99.90
9448;DHT22;4762;48.128;11.376;2023-04-03T02:37:55;1.20;99.90
9448;DHT22;4762;48.128;11.376;2023-04-03T02:39:57;1.30;99.90
9448;DHT22;4762;48.128;11.376;2023-04-03T02:42:00;1.30;99.90
9448;DHT22;4762;48.128;11.376;2023-04-03T02:44:02;1.40;99.90
9448;DHT22;4762;48.128;11.376;2023-04-03T02:46:04;1.30;99.90
9448;DHT22;4762;48.128;11.376;2023-04-03T02:48:06;1.30;99.90
9448;DHT22;4762;48.128;11.376;2023-04-03T02:50:09;1.30;99.90
9448;DHT22;4762;48.128;11.376;2023-04-03T02:52:12;1.40;99.90
9448;DHT22;4762;48.128;11.376;2023-04-03T02:54:13;1.40;99.90
9448;DHT22;4762;48.128;11.376;2023-04-03T02:56:16;1.40;99.90
9448;DHT22;4762;48.128;11.376;2023-04-03T02:58:19;1.30;99.90
9448;DHT22;4762;48.128;11.376;2023-04-03T03:00:25;1.30;99.90
9448;DHT22;4762;48.128;11.376;2023-04-03T03:02:28;1.30;99.90
9448;DHT22;4762;48.128;11.376;2023-04-03T03:04:31;1.30;99.90
9448;DHT22;4762;48.128;11.376;2023-04-03T03:06:33;1.40;99.90
9448;DHT22;4762;48.128;11.376;2023-04-03T03:08:35;1.40;99.90
9448;DHT22;4762;48.128;11.376;2023-04-03T03:10:37;1.40;99.90
9448;DHT22;4762;48.128;11.376;2023-04-03T03:12:40;1.40;99.90
9448;DHT22;4762;48.128;11.376;2023-04-03T03:14:43;1.40;99.90
9448;DHT22;4762;48.128;11.376;2023-04-03T03:16:45;1.40;99.90
9448;DHT22;4762;48.128;11.376;2023-04-03T03:18:47;1.40;99.90
9448;DHT22;4762;48.128;11.376;2023-04-03T03:20:54;1.40;99.90
9448;DHT22;4762;48.128;11.376;2023-04-03T03:22:55;1.40;99.90
9448;DHT22;4762;48.128;11.376;2023-04-03T03:24:57;1.40;99.90
9448;DHT22;4762;48.128;11.376;2023-04-03T03:27:00;1.40;99.90
9448;DHT22;4762;48.128;11.376;2023-04-03T03:29:02;1.50;99.90
9448;DHT22;4762;48.128;11.376;2023-04-03T03:31:04;1.40;99.90
9448;DHT22;4762;48.128;11.376;2023-04-03T03:33:06;1.40;99.90
9448;DHT22;4762;48.128;11.376;2023-04-03T03:35:09;1.40;99.90
9448;DHT22;4762;48.128;11.376;2023-04-03T03:37:11;1.40;99.90
9448;DHT22;4762;48.128;11.376;2023-04-03T03:39:13;1.40;99.90
9448;DHT22;4762;48.128;11.376;2023-04-03T03:41:15;1.40;99.90
9448;DHT22;4762;48.128;11.376;2023-04-03T03:43:17;1.50;99.90
9448;DHT22;4762;48.128;11.376;2023-04-03T03:45:22;1.50;99.90
9448;DHT22;4762;48.128;11.376;2023-04-03T03:47:25;1.50;99.90
9448;DHT22;4762;48.128;11.376;2023-04-03T03:49:27;1.40;99.90
9448;DHT22;4762;48.128;11.376;2023-04-03T03:51:29;1.50;99.90
9448;DHT22;4762;48.128;11.376;2023-04-03T03:53:31;1.50;99.90
9448;DHT22;4762;48.128;11.376;2023-04-03T03:55:34;1.50;99.90
9448;DHT22;4762;48.128;11.376;2023-04-03T03:57:36;1.50;99.90
9448;DHT22;4762;48.128;11.376;2023-04-03T03:59:38;1.50;99.90
9448;DHT22;4762;48.128;11.376;2023-04-03T04:01:40;1.40;99.90
9448;DHT22;4762;48.128;11.376;2023-04-03T04:03:43;1.40;99.90
9448;DHT22;4762;48.128;11.376;2023-04-03T04:05:45;1.40;99.90
9448;DHT22;4762;48.128;11.376;2023-04-03T04:07:48;1.40;99.90
9448;DHT22;4762;48.128;11.376;2023-04-03T04:09:51;1.50;99.90
9448;DHT22;4762;48.128;11.376;2023-04-03T04:11:53;1.40;99.90
9448;DHT22;4762;48.128;11.376;2023-04-03T04:13:55;1.40;99.90
9448;DHT22;4762;48.128;11.376;2023-04-03T04:15:57;1.30;99.90
9448;DHT22;4762;48.128;11.376;2023-04-03T04:17:59;1.30;99.90
9448;DHT22;4762;48.128;11.376;2023-04-03T04:20:02;1.30;99.90
9448;DHT22;4762;48.128;11.376;2023-04-03T04:22:04;1.30;99.90
9448;DHT22;4762;48.128;11.376;2023-04-03T04:24:08;1.40;99.90
9448;DHT22;4762;48.128;11.376;2023-04-03T04:26:10;1.40;99.90
9448;DHT22;4762;48.128;11.376;2023-04-03T04:28:13;1.40;99.90
9448;DHT22;4762;48.128;11.376;2023-04-03T04:30:15;1.40;99.90
9448;DHT22;4762;48.128;11.376;2023-04-03T04:32:18;1.40;99.90
9448;DHT22;4762;48.128;11.376;2023-04-03T04:34:20;1.40;99.90
9448;DHT22;4762;48.128;11.376;2023-04-03T04:36:23;1.50;99.90
9448;DHT22;4762;48.128;11.376;2023-04-03T04:38:25;1.40;99.90
9448;DHT22;4762;48.128;11.376;2023-04-03T04:40:27;1.40;99.90
9448;DHT22;4762;48.128;11.376;2023-04-03T04:42:29;1.40;99.90
9448;DHT22;4762;48.128;11.376;2023-04-03T04:44:31;1.40;99.90
9448;DHT22;4762;48.128;11.376;2023-04-03T04:46:34;1.30;99.90
9448;DHT22;4762;48.128;11.376;2023-04-03T04:48:36;1.40;99.90
9448;DHT22;4762;48.128;11.376;2023-04-03T04:50:38;1.40;99.90
9448;DHT22;4762;48.128;11.376;2023-04-03T04:52:41;1.40;99.90
9448;DHT22;4762;48.128;11.376;2023-04-03T04:54:44;1.40;99.90
9448;DHT22;4762;48.128;11.376;2023-04-03T04:56:45;1.40;99.90
9448;DHT22;4762;48.128;11.376;2023-04-03T04:58:48;1.40;99.90
9448;DHT22;4762;48.128;11.376;2023-04-03T05:00:58;1.40;99.90
9448;DHT22;4762;48.128;11.376;2023-04-03T05:03:00;1.40;99.90
9448;DHT22;4762;48.128;11.376;2023-04-03T05:05:03;1.40;99.90
9448;DHT22;4762;48.128;11.376;2023-04-03T05:07:05;1.40;99.90
9448;DHT22;4762;48.128;11.376;2023-04-03T05:09:07;1.40;99.90
9448;DHT22;4762;48.128;11.376;2023-04-03T05:11:09;1.40;99.90
9448;DHT22;4762;48.128;11.376;2023-04-03T05:13:13;1.50;99.90
9448;DHT22;4762;48.128;11.376;2023-04-03T05:15:15;1.50;99.90
9448;DHT22;4762;48.128;11.376;2023-04-03T05:17:17;1.50;99.90
9448;DHT22;4762;48.128;11.376;2023-04-03T05:19:20;1.50;99.90
9448;DHT22;4762;48.128;11.376;2023-04-03T05:21:22;1.50;99.90
9448;DHT22;4762;48.128;11.376;2023-04-03T05:23:24;1.50;99.90
9448;DHT22;4762;48.128;11.376;2023-04-03T05:25:26;1.40;99.90
9448;DHT22;4762;48.128;11.376;2023-04-03T05:27:28;1.50;99.90
9448;DHT22;4762;48.128;11.376;2023-04-03T05:29:31;1.50;99.90
9448;DHT22;4762;48.128;11.376;2023-04-03T05:31:34;1.50;99.90
9448;DHT22;4762;48.128;11.376;2023-04-03T05:33:37;1.50;99.90
9448;DHT22;4762;48.128;11.376;2023-04-03T05:35:39;1.50;99.90
9448;DHT22;4762;48.128;11.376;2023-04-03T05:37:42;1.50;99.90
9448;DHT22;4762;48.128;11.376;2023-04-03T05:39:45;1.50;99.90
9448;DHT22;4762;48.128;11.376;2023-04-03T05:41:47;1.50;99.90
9448;DHT22;4762;48.128;11.376;2023-04-03T05:43:49;1.60;99.90
9448;DHT22;4762;48.128;11.376;2023-04-03T05:45:52;1.60;99.90
9448;DHT22;4762;48.128;11.376;2023-04-03T05:47:54;1.70;99.90
9448;DHT22;4762;48.128;11.376;2023-04-03T05:49:56;1.70;99.90
9448;DHT22;4762;48.128;11.376;2023-04-03T05:51:58;1.60;99.90
9448;DHT22;4762;48.128;11.376;2023-04-03T05:54:12;1.60;99.90
9448;DHT22;4762;48.128;11.376;2023-04-03T05:56:13;1.60;99.90
9448;DHT22;4762;48.128;11.376;2023-04-03T05:58:15;1.60;99.90
9448;DHT22;4762;48.128;11.376;2023-04-03T06:00:23;1.60;99.90
9448;DHT22;4762;48.128;11.376;2023-04-03T06:02:27;1.70;99.90
9448;DHT22;4762;48.128;11.376;2023-04-03T06:04:29;1.60;99.90
9448;DHT22;4762;48.128;11.376;2023-04-03T06:08:46;1.60;99.90
9448;DHT22;4762;48.128;11.376;2023-04-03T06:10:48;1.70;99.90
9448;DHT22;4762;48.128;11.376;2023-04-03T06:12:51;1.80;99.90
9448;DHT22;4762;48.128;11.376;2023-04-03T06:14:55;1.80;99.90
9448;DHT22;4762;48.128;11.376;2023-04-03T06:16:57;1.70;99.90
9448;DHT22;4762;48.128;11.376;2023-04-03T06:18:59;1.80;99.90
9448;DHT22;4762;48.128;11.376;2023-04-03T06:21:01;1.90;99.90
9448;DHT22;4762;48.128;11.376;2023-04-03T06:23:04;2.00;99.90
9448;DHT22;4762;48.128;11.376;2023-04-03T06:25:07;2.00;99.90
9448;DHT22;4762;48.128;11.376;2023-04-03T06:27:10;2.10;99.90
9448;DHT22;4762;48.128;11.376;2023-04-03T06:29:12;2.10;99.90
9448;DHT22;4762;48.128;11.376;2023-04-03T06:31:14;2.10;99.90
9448;DHT22;4762;48.128;11.376;2023-04-03T06:33:17;2.10;99.90
9448;DHT22;4762;48.128;11.376;2023-04-03T06:35:19;2.10;99.90
9448;DHT22;4762;48.128;11.376;2023-04-03T06:37:22;2.10;99.90
9448;DHT22;4762;48.128;11.376;2023-04-03T06:39:35;2.10;99.90
9448;DHT22;4762;48.128;11.376;2023-04-03T06:41:37;2.00;99.90
9448;DHT22;4762;48.128;11.376;2023-04-03T06:43:39;2.10;99.90
9448;DHT22;4762;48.128;11.376;2023-04-03T06:45:44;2.10;99.90
9448;DHT22;4762;48.128;11.376;2023-04-03T06:47:46;2.00;99.90
9448;DHT22;4762;48.128;11.376;2023-04-03T06:49:49;2.20;99.90
9448;DHT22;4762;48.128;11.376;2023-04-03T06:51:51;2.30;99.90
9448;DHT22;4762;48.128;11.376;2023-04-03T06:53:54;2.30;99.90
9448;DHT22;4762;48.128;11.376;2023-04-03T06:55:55;2.30;99.90
9448;DHT22;4762;48.128;11.376;2023-04-03T06:57:58;2.20;99.90
9448;DHT22;4762;48.128;11.376;2023-04-03T07:00:00;2.30;99.90
9448;DHT22;4762;48.128;11.376;2023-04-03T07:02:02;2.40;99.90
9448;DHT22;4762;48.128;11.376;2023-04-03T07:04:04;2.60;99.90
9448;DHT22;4762;48.128;11.376;2023-04-03T07:06:08;2.70;99.90
9448;DHT22;4762;48.128;11.376;2023-04-03T07:08:09;2.90;99.90
9448;DHT22;4762;48.128;11.376;2023-04-03T07:10:11;2.90;99.90
9448;DHT22;4762;48.128;11.376;2023-04-03T07:12:13;3.10;99.90
9448;DHT22;4762;48.128;11.376;2023-04-03T07:14:16;2.80;99.90
9448;DHT22;4762;48.128;11.376;2023-04-03T07:16:19;2.80;99.90
9448;DHT22;4762;48.128;11.376;2023-04-03T07:18:21;2.80;99.90
9448;DHT22;4762;48.128;11.376;2023-04-03T07:20:23;2.80;99.90
9448;DHT22;4762;48.128;11.376;2023-04-03T07:22:25;2.80;99.90
9448;DHT22;4762;48.128;11.376;2023-04-03T07:24:28;2.90;99.90
9448;DHT22;4762;48.128;11.376;2023-04-03T07:26:30;3.00;99.90
9448;DHT22;4762;48.128;11.376;2023-04-03T07:28:32;3.30;99.90
9448;DHT22;4762;48.128;11.376;2023-04-03T07:30:34;3.40;99.90
9448;DHT22;4762;48.128;11.376;2023-04-03T07:32:36;3.50;99.90
9448;DHT22;4762;48.128;11.376;2023-04-03T07:34:39;3.40;99.90
9448;DHT22;4762;48.128;11.376;2023-04-03T07:36:41;3.70;99.90
9448;DHT22;4762;48.128;11.376;2023-04-03T07:38:43;3.50;99.90
9448;DHT22;4762;48.128;11.376;2023-04-03T07:40:47;3.40;99.90
9448;DHT22;4762;48.128;11.376;2023-04-03T07:42:48;3.40;99.90
9448;DHT22;4762;48.128;11.376;2023-04-03T07:44:51;3.60;99.90
9448;DHT22;4762;48.128;11.376;2023-04-03T07:46:53;3.60;99.90
9448;DHT22;4762;48.128;11.376;2023-04-03T07:48:56;3.60;99.90
9448;DHT22;4762;48.128;11.376;2023-04-03T07:50:59;3.80;99.90
9448;DHT22;4762;48.128;11.376;2023-04-03T07:53:01;3.60;99.90
9448;DHT22;4762;48.128;11.376;2023-04-03T07:55:03;3.50;99.90
9448;DHT22;4762;48.128;11.376;2023-04-03T07:57:06;3.20;99.90
9448;DHT22;4762;48.128;11.376;2023-04-03T07:59:09;3.40;99.90
9448;DHT22;4762;48.128;11.376;2023-04-03T08:01:10;3.60;99.90
9448;DHT22;4762;48.128;11.376;2023-04-03T08:03:13;3.30;99.90
9448;DHT22;4762;48.128;11.376;2023-04-03T08:05:15;3.60;99.90
9448;DHT22;4762;48.128;11.376;2023-04-03T08:07:17;3.80;99.90
9448;DHT22;4762;48.128;11.376;2023-04-03T08:09:19;3.90;99.90
9448;DHT22;4762;48.128;11.376;2023-04-03T08:11:21;3.70;99.90
9448;DHT22;4762;48.128;11.376;2023-04-03T08:13:24;3.80;99.90
9448;DHT22;4762;48.128;11.376;2023-04-03T08:15:26;3.90;99.90
9448;DHT22;4762;48.128;11.376;2023-04-03T08:17:30;3.90;99.90
9448;DHT22;4762;48.128;11.376;2023-04-03T08:19:32;3.90;99.90
9448;DHT22;4762;48.128;11.376;2023-04-03T08:21:34;3.90;99.90
9448;DHT22;4762;48.128;11.376;2023-04-03T08:23:38;3.90;99.90
9448;DHT22;4762;48.128;11.376;2023-04-03T08:25:40;3.70;99.90
9448;DHT22;4762;48.128;11.376;2023-04-03T08:27:42;3.70;99.90
9448;DHT22;4762;48.128;11.376;2023-04-03T08:29:44;4.00;99.90
9448;DHT22;4762;48.128;11.376;2023-04-03T08:31:46;4.00;99.90
9448;DHT22;4762;48.128;11.376;2023-04-03T08:33:49;4.20;99.90
9448;DHT22;4762;48.128;11.376;2023-04-03T08:35:51;4.30;99.90
9448;DHT22;4762;48.128;11.376;2023-04-03T08:37:54;4.10;99.90
9448;DHT22;4762;48.128;11.376;2023-04-03T08:39:57;3.60;99.90
9448;DHT22;4762;48.128;11.376;2023-04-03T08:41:59;3.60;99.90
9448;DHT22;4762;48.128;11.376;2023-04-03T08:44:14;3.80;99.90
9448;DHT22;4762;48.128;11.376;2023-04-03T08:46:18;3.90;99.90
9448;DHT22;4762;48.128;11.376;2023-04-03T08:48:21;4.00;99.90
9448;DHT22;4762;48.128;11.376;2023-04-03T08:50:26;3.90;99.90
9448;DHT22;4762;48.128;11.376;2023-04-03T08:52:39;4.00;99.90
9448;DHT22;4762;48.128;11.376;2023-04-03T08:54:52;4.00;99.90
9448;DHT22;4762;48.128;11.376;2023-04-03T08:56:53;4.00;99.90
9448;DHT22;4762;48.128;11.376;2023-04-03T08:58:58;3.70;99.90
9448;DHT22;4762;48.128;11.376;2023-04-03T09:01:07;3.90;99.90
9448;DHT22;4762;48.128;11.376;2023-04-03T09:03:11;3.90;99.90
9448;DHT22;4762;48.128;11.376;2023-04-03T09:05:13;3.90;99.90
9448;DHT22;4762;48.128;11.376;2023-04-03T09:07:16;4.30;99.90
9448;DHT22;4762;48.128;11.376;2023-04-03T09:09:37;4.40;99.90
9448;DHT22;4762;48.128;11.376;2023-04-03T09:11:47;4.30;99.90
9448;DHT22;4762;48.128;11.376;2023-04-03T09:13:57;4.30;99.90
9448;DHT22;4762;48.128;11.376;2023-04-03T09:16:00;4.50;99.90
9448;DHT22;4762;48.128;11.376;2023-04-03T09:18:05;4.60;99.90
9448;DHT22;4762;48.128;11.376;2023-04-03T09:20:23;4.40;99.90
9448;DHT22;4762;48.128;11.376;2023-04-03T09:22:24;4.30;99.90
9448;DHT22;4762;48.128;11.376;2023-04-03T09:24:26;4.00;99.90
9448;DHT22;4762;48.128;11.376;2023-04-03T09:26:34;3.90;99.90
9448;DHT22;4762;48.128;11.376;2023-04-03T09:28:36;4.30;99.90
9448;DHT22;4762;48.128;11.376;2023-04-03T09:30:38;4.50;99.90
9448;DHT22;4762;48.128;11.376;2023-04-03T09:32:40;4.10;99.90
9448;DHT22;4762;48.128;11.376;2023-04-03T09:34:42;4.40;99.90
9448;DHT22;4762;48.128;11.376;2023-04-03T09:36:46;4.60;99.90
9448;DHT22;4762;48.128;11.376;2023-04-03T09:38:56;4.70;99.90
9448;DHT22;4762;48.128;11.376;2023-04-03T09:40:50;4.90;99.90
9448;DHT22;4762;48.128;11.376;2023-04-03T09:42:55;5.00;99.90
9448;DHT22;4762;48.128;11.376;2023-04-03T09:45:18;5.10;99.90
9448;DHT22;4762;48.128;11.376;2023-04-03T09:47:19;5.10;99.90
9448;DHT22;4762;48.128;11.376;2023-04-03T09:49:20;5.30;99.90
9448;DHT22;4762;48.128;11.376;2023-04-03T09:51:26;5.40;99.90
9448;DHT22;4762;48.128;11.376;2023-04-03T09:53:43;5.40;99.90
9448;DHT22;4762;48.128;11.376;2023-04-03T09:55:44;5.60;99.90
9448;DHT22;4762;48.128;11.376;2023-04-03T09:57:47;5.40;99.90
9448;DHT22;4762;48.128;11.376;2023-04-03T09:59:56;5.30;98.60
9448;DHT22;4762;48.128;11.376;2023-04-03T10:02:21;5.30;99.60
9448;DHT22;4762;48.128;11.376;2023-04-03T10:04:18;5.40;98.80
9448;DHT22;4762;48.128;11.376;2023-04-03T10:06:22;5.40;99.90
9448;DHT22;4762;48.128;11.376;2023-04-03T10:08:27;5.50;99.90
9448;DHT22;4762;48.128;11.376;2023-04-03T10:10:28;5.90;99.90
9448;DHT22;4762;48.128;11.376;2023-04-03T10:12:30;5.80;99.90
9448;DHT22;4762;48.128;11.376;2023-04-03T10:14:33;5.80;96.80
9448;DHT22;4762;48.128;11.376;2023-04-03T10:16:38;5.20;97.10
9448;DHT22;4762;48.128;11.376;2023-04-03T10:20:59;4.80;99.90
9448;DHT22;4762;48.128;11.376;2023-04-03T10:23:17;4.60;99.90
9448;DHT22;4762;48.128;11.376;2023-04-03T10:25:26;4.50;99.90
9448;DHT22;4762;48.128;11.376;2023-04-03T10:27:35;4.70;99.90
9448;DHT22;4762;48.128;11.376;2023-04-03T10:29:48;4.70;99.90
9448;DHT22;4762;48.128;11.376;2023-04-03T10:34:05;4.50;99.90
9448;DHT22;4762;48.128;11.376;2023-04-03T10:36:17;4.40;99.90
9448;DHT22;4762;48.128;11.376;2023-04-03T10:38:40;4.40;99.90
9448;DHT22;4762;48.128;11.376;2023-04-03T10:40:48;4.50;99.90
9448;DHT22;4762;48.128;11.376;2023-04-03T10:42:56;4.50;99.90
9448;DHT22;4762;48.128;11.376;2023-04-03T10:45:01;4.50;99.90
9448;DHT22;4762;48.128;11.376;2023-04-03T10:47:20;4.30;99.90
9448;DHT22;4762;48.128;11.376;2023-04-03T10:50:00;3.90;99.90
9448;DHT22;4762;48.128;11.376;2023-04-03T10:51:45;3.70;99.90
9448;DHT22;4762;48.128;11.376;2023-04-03T10:54:08;3.70;99.90
9448;DHT22;4762;48.128;11.376;2023-04-03T10:56:17;3.80;99.90
9448;DHT22;4762;48.128;11.376;2023-04-03T10:58:27;4.00;99.90
9448;DHT22;4762;48.128;11.376;2023-04-03T11:00:35;4.10;99.90
9448;DHT22;4762;48.128;11.376;2023-04-03T11:02:37;3.90;99.90
9448;DHT22;4762;48.128;11.376;2023-04-03T11:04:39;4.00;99.90
9448;DHT22;4762;48.128;11.376;2023-04-03T11:06:42;4.10;99.90
9448;DHT22;4762;48.128;11.376;2023-04-03T11:09:01;4.00;99.90
9448;DHT22;4762;48.128;11.376;2023-04-03T11:11:08;3.80;99.90
9448;DHT22;4762;48.128;11.376;2023-04-03T11:13:13;3.80;99.90
9448;DHT22;4762;48.128;11.376;2023-04-03T11:15:15;3.70;99.90
9448;DHT22;4762;48.128;11.376;2023-04-03T11:17:36;3.90;99.90
9448;DHT22;4762;48.128;11.376;2023-04-03T11:19:41;4.20;99.90
9448;DHT22;4762;48.128;11.376;2023-04-03T11:21:43;4.30;99.90
9448;DHT22;4762;48.128;11.376;2023-04-03T11:23:43;4.40;99.90
9448;DHT22;4762;48.128;11.376;2023-04-03T11:25:45;4.70;99.90
9448;DHT22;4762;48.128;11.376;2023-04-03T11:29:56;4.90;95.80
9448;DHT22;4762;48.128;11.376;2023-04-03T11:34:41;5.10;96.90
9448;DHT22;4762;48.128;11.376;2023-04-03T11:36:44;5.30;96.30
9448;DHT22;4762;48.128;11.376;2023-04-03T11:38:46;5.30;92.10
9448;DHT22;4762;48.128;11.376;2023-04-03T11:40:47;5.00;93.10
9448;DHT22;4762;48.128;11.376;2023-04-03T11:42:52;4.80;91.30
9448;DHT22;4762;48.128;11.376;2023-04-03T11:45:10;4.70;94.70
9448;DHT22;4762;48.128;11.376;2023-04-03T11:46:56;4.90;92.80
9448;DHT22;4762;48.128;11.376;2023-04-03T11:48:57;5.00;91.50
9448;DHT22;4762;48.128;11.376;2023-04-03T11:51:00;5.10;90.60
9448;DHT22;4762;48.128;11.376;2023-04-03T11:53:25;5.00;91.00
9448;DHT22;4762;48.128;11.376;2023-04-03T11:57:22;5.10;90.60
9448;DHT22;4762;48.128;11.376;2023-04-03T11:59:24;4.90;94.60
9448;DHT22;4762;48.128;11.376;2023-04-03T12:01:48;5.20;93.40
9448;DHT22;4762;48.128;11.376;2023-04-03T12:04:05;5.40;93.30
9448;DHT22;4762;48.128;11.376;2023-04-03T12:06:52;5.60;84.00
9448;DHT22;4762;48.128;11.376;2023-04-03T12:08:50;5.30;81.50
9448;DHT22;4762;48.128;11.376;2023-04-03T12:13:13;5.80;81.80
9448;DHT22;4762;48.128;11.376;2023-04-03T12:17:25;6.00;68.90
9448;DHT22;4762;48.128;11.376;2023-04-03T12:19:31;6.40;68.50
9448;DHT22;4762;48.128;11.376;2023-04-03T12:24:24;6.40;67.90
9448;DHT22;4762;48.128;11.376;2023-04-03T12:26:26;6.30;65.10
9448;DHT22;4762;48.128;11.376;2023-04-03T12:28:27;5.80;68.80
9448;DHT22;4762;48.128;11.376;2023-04-03T12:30:29;5.80;65.70
9448;DHT22;4762;48.128;11.376;2023-04-03T12:32:46;6.40;69.80
9448;DHT22;4762;48.128;11.376;2023-04-03T12:35:00;6.70;67.40
9448;DHT22;4762;48.128;11.376;2023-04-03T12:37:01;6.20;68.20
9448;DHT22;4762;48.128;11.376;2023-04-03T12:40:07;6.10;63.00
9448;DHT22;4762;48.128;11.376;2023-04-03T12:41:26;6.10;65.40
9448;DHT22;4762;48.128;11.376;2023-04-03T12:43:37;6.50;62.30
9448;DHT22;4762;48.128;11.376;2023-04-03T12:45:52;6.60;63.10
9448;DHT22;4762;48.128;11.376;2023-04-03T12:47:56;6.60;63.80
9448;DHT22;4762;48.128;11.376;2023-04-03T12:49:59;7.00;61.40
9448;DHT22;4762;48.128;11.376;2023-04-03T12:52:02;7.00;60.30
9448;DHT22;4762;48.128;11.376;2023-04-03T12:54:13;6.90;61.00
9448;DHT22;4762;48.128;11.376;2023-04-03T12:56:23;7.30;64.10
9448;DHT22;4762;48.128;11.376;2023-04-03T12:58:27;8.00;62.60
9448;DHT22;4762;48.128;11.376;2023-04-03T13:00:30;8.10;60.30
9448;DHT22;4762;48.128;11.376;2023-04-03T13:02:32;7.30;55.60
9448;DHT22;4762;48.128;11.376;2023-04-03T13:04:37;7.20;59.50
9448;DHT22;4762;48.128;11.376;2023-04-03T13:06:40;7.40;59.80
9448;DHT22;4762;48.128;11.376;2023-04-03T13:08:50;7.50;60.00
9448;DHT22;4762;48.128;11.376;2023-04-03T13:11:09;7.40;58.80
9448;DHT22;4762;48.128;11.376;2023-04-03T13:13:13;7.10;56.90
9448;DHT22;4762;48.128;11.376;2023-04-03T13:15:19;6.80;61.40
9448;DHT22;4762;48.128;11.376;2023-04-03T13:17:20;7.00;60.30
9448;DHT22;4762;48.128;11.376;2023-04-03T13:19:25;7.20;59.80
9448;DHT22;4762;48.128;11.376;2023-04-03T13:21:27;7.20;58.90
9448;DHT22;4762;48.128;11.376;2023-04-03T13:23:29;7.20;57.70
9448;DHT22;4762;48.128;11.376;2023-04-03T13:25:33;7.00;57.00
9448;DHT22;4762;48.128;11.376;2023-04-03T13:27:40;6.80;57.70
9448;DHT22;4762;48.128;11.376;2023-04-03T13:29:50;6.60;57.50
9448;DHT22;4762;48.128;11.376;2023-04-03T13:31:53;6.50;57.60
9448;DHT22;4762;48.128;11.376;2023-04-03T13:33:59;6.60;57.10
9448;DHT22;4762;48.128;11.376;2023-04-03T13:36:08;6.20;57.60
9448;DHT22;4762;48.128;11.376;2023-04-03T13:38:26;6.00;60.50
9448;DHT22;4762;48.128;11.376;2023-04-03T13:40:28;6.10;61.80
9448;DHT22;4762;48.128;11.376;2023-04-03T13:42:32;6.40;60.70
9448;DHT22;4762;48.128;11.376;2023-04-03T13:44:35;6.50;59.90
9448;DHT22;4762;48.128;11.376;2023-04-03T13:46:37;6.50;59.80
9448;DHT22;4762;48.128;11.376;2023-04-03T13:48:44;6.60;59.70
9448;DHT22;4762;48.128;11.376;2023-04-03T13:50:56;6.50;57.60
9448;DHT22;4762;48.128;11.376;2023-04-03T13:53:02;6.30;58.30
9448;DHT22;4762;48.128;11.376;2023-04-03T13:55:20;6.20;56.70